createdAt,value
2019-04-21T00:00:06.184Z,1019.98
2019-04-21T00:01:05.492Z,1019.94
2019-04-21T00:02:01.670Z,1019.93
2019-04-21T00:03:07.376Z,1019.95
2019-04-21T00:04:12.316Z,1019.94
2019-04-21T00:05:24.975Z,1019.92
2019-04-21T00:06:24.981Z,1019.87
2019-04-21T00:07:20.563Z,1019.88
2019-04-21T00:08:33.522Z,1019.83
2019-04-21T00:09:31.316Z,1019.92
2019-04-21T00:10:28.511Z,1019.87
2019-04-21T00:11:22.125Z,1019.91
2019-04-21T00:12:20.607Z,1019.87
2019-04-21T00:13:20.468Z,1019.85
2019-04-21T00:14:14.091Z,1019.81
2019-04-21T00:15:15.801Z,1019.85
2019-04-21T00:16:06.741Z,1019.86
2019-04-21T00:17:09.071Z,1019.87
2019-04-21T00:18:04.421Z,1019.87
2019-04-21T00:19:10.347Z,1019.90
2019-04-21T00:20:15.553Z,1019.87
2019-04-21T00:21:10.996Z,1019.88
2019-04-21T00:22:14.883Z,1019.87
2019-04-21T00:23:18.134Z,1019.83
2019-04-21T00:24:16.555Z,1019.84
2019-04-21T00:25:13.912Z,1019.85
2019-04-21T00:26:15.748Z,1019.82
2019-04-21T00:27:18.641Z,1019.82
2019-04-21T00:28:28.922Z,1019.86
2019-04-21T00:29:26.810Z,1019.85
2019-04-21T00:30:21.746Z,1019.80
2019-04-21T00:31:23.038Z,1019.81
2019-04-21T00:32:14.578Z,1019.81
2019-04-21T00:33:09.038Z,1019.80
2019-04-21T00:34:00.674Z,1019.77
2019-04-21T00:35:06.389Z,1019.77
2019-04-21T00:36:09.589Z,1019.70
2019-04-21T00:37:14.605Z,1019.68
2019-04-21T00:38:25.049Z,1019.69
2019-04-21T00:39:28.659Z,1019.66
2019-04-21T00:40:25.651Z,1019.66
2019-04-21T00:41:26.068Z,1019.62
2019-04-21T00:42:21.606Z,1019.59
2019-04-21T00:43:19.605Z,1019.60
2019-04-21T00:44:12.898Z,1019.58
2019-04-21T00:45:15.288Z,1019.57
2019-04-21T00:46:12.340Z,1019.57
2019-04-21T00:47:24.130Z,1019.55
2019-04-21T00:48:25.443Z,1019.55
2019-04-21T00:49:18.155Z,1019.55
2019-04-21T00:50:20.552Z,1019.49
2019-04-21T00:52:30.273Z,1019.50
2019-04-21T00:53:31.793Z,1019.45
2019-04-21T00:54:27.769Z,1019.44
2019-04-21T00:55:30.909Z,1019.49
2019-04-21T00:56:23.905Z,1019.44
2019-04-21T00:57:25.283Z,1019.46
2019-04-21T00:58:23.694Z,1019.44
2019-04-21T00:59:26.913Z,1019.43
2019-04-21T01:00:26.143Z,1019.42
2019-04-21T01:01:21.832Z,1019.38
2019-04-21T01:02:16.863Z,1019.37
2019-04-21T01:03:21.724Z,1019.38
2019-04-21T01:04:26.349Z,1019.40
2019-04-21T01:05:22.442Z,1019.35
2019-04-21T01:06:22.732Z,1019.35
2019-04-21T01:07:25.710Z,1019.35
2019-04-21T01:08:23.117Z,1019.32
2019-04-21T01:09:19.755Z,1019.28
2019-04-21T01:10:14.864Z,1019.26
2019-04-21T01:11:18.914Z,1019.23
2019-04-21T01:12:23.288Z,1019.24
2019-04-21T01:13:21.647Z,1019.23
2019-04-21T01:14:30.441Z,1019.20
2019-04-21T01:15:24.686Z,1019.21
2019-04-21T01:16:20.850Z,1019.19
2019-04-21T01:17:22.945Z,1019.21
2019-04-21T01:18:24.478Z,1019.20
2019-04-21T01:19:16.785Z,1019.21
2019-04-21T01:20:12.959Z,1019.19
2019-04-21T01:20:59.291Z,1019.19
2019-04-21T01:21:59.222Z,1019.15
2019-04-21T01:23:00.251Z,1019.12
2019-04-21T01:24:10.371Z,1019.19
2019-04-21T01:25:09.050Z,1019.18
2019-04-21T01:26:13.119Z,1019.20
2019-04-21T01:27:11.110Z,1019.19
2019-04-21T01:28:13.605Z,1019.21
2019-04-21T01:29:15.477Z,1019.20
2019-04-21T01:30:16.493Z,1019.21
2019-04-21T01:31:17.453Z,1019.21
2019-04-21T01:32:28.326Z,1019.15
2019-04-21T01:33:21.752Z,1019.19
2019-04-21T01:34:22.007Z,1019.19
2019-04-21T01:35:21.075Z,1019.16
2019-04-21T01:36:15.622Z,1019.18
2019-04-21T01:38:27.310Z,1019.27
2019-04-21T01:39:19.658Z,1019.23
2019-04-21T01:40:24.182Z,1019.26
2019-04-21T01:41:41.309Z,1019.26
2019-04-21T01:42:15.854Z,1019.26
2019-04-21T01:43:21.868Z,1019.27
2019-04-21T01:44:25.666Z,1019.31
2019-04-21T01:46:13.894Z,1019.32
2019-04-21T01:47:11.807Z,1019.34
2019-04-21T01:48:15.878Z,1019.30
2019-04-21T01:49:11.567Z,1019.33
2019-04-21T01:50:07.077Z,1019.32
2019-04-21T01:51:16.043Z,1019.31
2019-04-21T01:52:24.715Z,1019.32
2019-04-21T01:53:24.855Z,1019.29
2019-04-21T01:54:23.507Z,1019.29
2019-04-21T01:55:17.808Z,1019.31
2019-04-21T01:56:16.948Z,1019.30
2019-04-21T01:57:20.098Z,1019.32
2019-04-21T01:58:12.886Z,1019.27
2019-04-21T01:59:06.997Z,1019.30
2019-04-21T02:00:12.463Z,1019.28
2019-04-21T02:01:21.593Z,1019.30
2019-04-21T02:02:18.787Z,1019.27
2019-04-21T02:03:37.332Z,1019.30
2019-04-21T02:04:26.977Z,1019.27
2019-04-21T02:05:26.488Z,1019.31
2019-04-21T02:06:21.184Z,1019.27
2019-04-21T02:07:21.905Z,1019.27
2019-04-21T02:08:14.842Z,1019.28
2019-04-21T02:09:17.299Z,1019.29
2019-04-21T02:10:21.130Z,1019.29
2019-04-21T02:11:26.376Z,1019.28
2019-04-21T02:12:20.951Z,1019.32
2019-04-21T02:13:17.394Z,1019.32
2019-04-21T02:14:22.996Z,1019.31
2019-04-21T02:15:36.516Z,1019.33
2019-04-21T02:16:18.170Z,1019.33
2019-04-21T02:17:16.418Z,1019.31
2019-04-21T02:18:18.571Z,1019.35
2019-04-21T02:19:13.771Z,1019.35
2019-04-21T02:20:12.030Z,1019.33
2019-04-21T02:21:03.726Z,1019.36
2019-04-21T02:22:19.273Z,1019.35
2019-04-21T02:23:28.271Z,1019.35
2019-04-21T02:24:23.838Z,1019.35
2019-04-21T02:25:19.766Z,1019.33
2019-04-21T02:26:20.591Z,1019.33
2019-04-21T02:27:19.191Z,1019.34
2019-04-21T02:28:22.432Z,1019.31
2019-04-21T02:29:21.848Z,1019.35
2019-04-21T02:30:33.598Z,1019.32
2019-04-21T02:31:26.646Z,1019.31
2019-04-21T02:32:24.748Z,1019.31
2019-04-21T02:33:43.099Z,1019.33
2019-04-21T02:34:27.551Z,1019.32
2019-04-21T02:37:36.772Z,1019.27
2019-04-21T02:38:30.262Z,1019.25
2019-04-21T02:40:36.238Z,1019.24
2019-04-21T02:41:34.632Z,1019.20
2019-04-21T02:42:32.418Z,1019.18
2019-04-21T02:43:50.023Z,1019.18
2019-04-21T02:44:34.226Z,1019.16
2019-04-21T02:46:31.298Z,1019.08
2019-04-21T02:47:37.197Z,1019.08
2019-04-21T02:48:28.564Z,1019.09
2019-04-21T02:49:38.162Z,1019.05
2019-04-21T02:50:17.597Z,1019.03
2019-04-21T02:51:33.678Z,1019.02
2019-04-21T02:53:46.028Z,1018.98
2019-04-21T02:55:30.500Z,1018.95
2019-04-21T02:56:48.702Z,1018.95
2019-04-21T02:57:22.904Z,1018.97
2019-04-21T02:59:33.695Z,1018.91
2019-04-21T03:02:33.778Z,1018.96
2019-04-21T03:03:27.667Z,1018.84
2019-04-21T03:04:30.292Z,1018.87
2019-04-21T03:05:41.682Z,1018.86
2019-04-21T03:06:39.389Z,1018.82
2019-04-21T03:07:46.499Z,1018.83
2019-04-21T03:08:37.939Z,1018.84
2019-04-21T03:09:42.709Z,1018.80
2019-04-21T03:11:34.984Z,1018.79
2019-04-21T03:12:22.202Z,1018.74
2019-04-21T03:13:29.503Z,1018.77
2019-04-21T03:14:41.307Z,1018.72
2019-04-21T03:15:29.238Z,1018.68
2019-04-21T03:16:32.372Z,1018.68
2019-04-21T03:17:29.220Z,1018.63
2019-04-21T03:19:36.209Z,1018.59
2019-04-21T03:20:23.964Z,1018.59
2019-04-21T03:21:28.674Z,1018.53
2019-04-21T03:22:24.311Z,1018.55
2019-04-21T03:23:29.776Z,1018.55
2019-04-21T03:24:29.425Z,1018.54
2019-04-21T03:28:30.514Z,1018.48
2019-04-21T03:29:29.508Z,1018.46
2019-04-21T03:30:45.167Z,1018.45
2019-04-21T03:34:12.215Z,1018.45
2019-04-21T03:36:04.585Z,1018.43
2019-04-21T03:36:47.821Z,1018.41
2019-04-21T03:38:31.381Z,1018.38
2019-04-21T03:39:32.499Z,1018.39
2019-04-21T03:40:18.817Z,1018.39
2019-04-21T03:41:32.320Z,1018.42
2019-04-21T03:44:22.844Z,1018.40
2019-04-21T03:45:36.848Z,1018.37
2019-04-21T03:46:32.516Z,1018.41
2019-04-21T03:47:30.899Z,1018.38
2019-04-21T03:48:28.780Z,1018.37
2019-04-21T03:49:36.477Z,1018.36
2019-04-21T03:50:29.677Z,1018.34
2019-04-21T03:52:37.079Z,1018.32
2019-04-21T03:53:26.627Z,1018.32
2019-04-21T03:54:32.908Z,1018.25
2019-04-21T03:56:45.263Z,1018.23
2019-04-21T03:57:38.751Z,1018.28
2019-04-21T03:59:16.117Z,1018.28
2019-04-21T04:00:44.922Z,1018.23
2019-04-21T04:01:21.992Z,1018.25
2019-04-21T04:02:45.199Z,1018.25
2019-04-21T04:05:42.341Z,1018.21
2019-04-21T04:07:33.790Z,1018.22
2019-04-21T04:08:44.507Z,1018.22
2019-04-21T04:10:22.822Z,1018.19
2019-04-21T04:12:23.137Z,1018.17
2019-04-21T04:13:26.542Z,1018.17
2019-04-21T04:15:35.106Z,1018.19
2019-04-21T04:18:41.143Z,1018.18
2019-04-21T04:19:30.589Z,1018.13
2019-04-21T04:21:30.372Z,1018.11
2019-04-21T04:23:31.356Z,1018.08
2019-04-21T04:25:27.997Z,1018.09
2019-04-21T04:26:22.111Z,1018.09
2019-04-21T04:27:54.028Z,1018.06
2019-04-21T04:28:28.140Z,1018.06
2019-04-21T04:30:32.397Z,1018.04
2019-04-21T04:31:35.383Z,1018.03
2019-04-21T04:32:23.146Z,1018.03
2019-04-21T04:33:30.414Z,1018.04
2019-04-21T04:36:39.969Z,1018.05
2019-04-21T04:39:36.693Z,1018.03
2019-04-21T04:41:49.576Z,1018.04
2019-04-21T04:44:42.042Z,1018.07
2019-04-21T04:45:38.460Z,1018.05
2019-04-21T04:46:33.346Z,1018.05
2019-04-21T04:47:29.947Z,1018.06
2019-04-21T04:48:20.342Z,1018.02
2019-04-21T04:49:39.031Z,1018.06
2019-04-21T04:50:33.813Z,1018.05
2019-04-21T04:51:35.876Z,1017.98
2019-04-21T04:54:32.377Z,1018.01
2019-04-21T04:56:38.385Z,1018.00
2019-04-21T04:57:39.573Z,1018.02
2019-04-21T04:58:39.824Z,1018.00
2019-04-21T04:59:35.451Z,1018.02
2019-04-21T05:01:32.652Z,1017.97
2019-04-21T05:02:27.731Z,1017.98
2019-04-21T05:04:23.831Z,1017.91
2019-04-21T05:05:26.796Z,1017.90
2019-04-21T05:07:25.004Z,1017.92
2019-04-21T05:08:31.445Z,1017.90
2019-04-21T05:10:33.018Z,1017.86
2019-04-21T05:11:36.758Z,1017.86
2019-04-21T05:12:15.968Z,1017.83
2019-04-21T05:13:26.044Z,1017.88
2019-04-21T05:15:19.183Z,1017.87
2019-04-21T05:16:36.755Z,1017.86
2019-04-21T05:18:24.413Z,1017.84
2019-04-21T05:19:32.745Z,1017.86
2019-04-21T05:20:17.024Z,1017.83
2019-04-21T05:21:30.242Z,1017.85
2019-04-21T05:24:36.036Z,1017.82
2019-04-21T05:25:23.336Z,1017.81
2019-04-21T05:31:08.687Z,1017.77
2019-04-21T05:34:18.591Z,1017.77
2019-04-21T05:35:15.628Z,1017.76
2019-04-21T05:37:39.808Z,1017.81
2019-04-21T05:38:34.633Z,1017.81
2019-04-21T05:41:37.326Z,1017.79
2019-04-21T05:42:39.637Z,1017.79
2019-04-21T05:43:50.336Z,1017.79
2019-04-21T05:51:20.480Z,1017.82
2019-04-21T05:52:19.832Z,1017.83
2019-04-21T05:56:03.569Z,1017.80
2019-04-21T05:56:59.763Z,1017.79
2019-04-21T06:06:27.478Z,1017.78
2019-04-21T06:08:25.336Z,1017.78
2019-04-21T06:09:35.198Z,1017.75
2019-04-21T06:10:30.473Z,1017.75
2019-04-21T06:11:26.669Z,1017.72
2019-04-21T06:12:21.894Z,1017.75
2019-04-21T06:13:51.967Z,1017.75
2019-04-21T06:14:31.122Z,1017.78
2019-04-21T06:15:32.589Z,1017.78
2019-04-21T06:16:34.474Z,1017.80
2019-04-21T06:17:31.441Z,1017.81
2019-04-21T06:22:22.182Z,1017.76
2019-04-21T06:26:17.905Z,1017.84
2019-04-21T06:27:57.501Z,1017.80
2019-04-21T06:29:13.363Z,1017.77
2019-04-21T06:31:05.490Z,1017.77
2019-04-21T06:32:20.434Z,1017.75
2019-04-21T06:34:04.775Z,1017.73
2019-04-21T06:35:13.355Z,1017.74
2019-04-21T06:38:51.408Z,1017.79
2019-04-21T06:41:27.760Z,1017.81
2019-04-21T06:44:16.575Z,1017.81
2019-04-21T06:47:30.206Z,1017.86
2019-04-21T06:49:13.167Z,1017.82
2019-04-21T06:50:25.635Z,1017.80
2019-04-21T06:51:22.551Z,1017.80
2019-04-21T06:52:41.890Z,1017.76
2019-04-21T06:53:35.781Z,1017.77
2019-04-21T06:54:23.579Z,1017.75
2019-04-21T06:56:05.038Z,1017.75
2019-04-21T06:56:27.088Z,1017.75
2019-04-21T06:57:26.010Z,1017.71
2019-04-21T06:58:18.365Z,1017.71
2019-04-21T06:59:14.887Z,1017.68
2019-04-21T07:00:18.435Z,1017.71
2019-04-21T07:03:58.947Z,1017.64
2019-04-21T07:07:54.701Z,1017.66
2019-04-21T07:14:59.493Z,1017.68
2019-04-21T07:16:04.045Z,1017.64
2019-04-21T07:21:29.801Z,1017.63
2019-04-21T07:22:33.761Z,1017.59
2019-04-21T07:23:30.270Z,1017.59
2019-04-21T07:25:29.758Z,1017.58
2019-04-21T07:26:25.302Z,1017.58
2019-04-21T07:27:30.332Z,1017.57
2019-04-21T07:28:25.382Z,1017.59
2019-04-21T07:29:32.114Z,1017.57
2019-04-21T07:30:31.721Z,1017.58
2019-04-21T07:31:28.966Z,1017.59
2019-04-21T07:32:26.538Z,1017.60
2019-04-21T07:34:28.964Z,1017.55
2019-04-21T07:35:25.011Z,1017.55
2019-04-21T07:36:32.349Z,1017.54
2019-04-21T07:37:25.524Z,1017.53
2019-04-21T07:38:23.969Z,1017.51
2019-04-21T07:39:22.114Z,1017.50
2019-04-21T07:40:22.294Z,1017.45
2019-04-21T07:41:20.020Z,1017.48
2019-04-21T07:42:20.303Z,1017.42
2019-04-21T07:43:16.417Z,1017.45
2019-04-21T07:44:17.052Z,1017.46
2019-04-21T07:45:17.938Z,1017.45
2019-04-21T07:46:17.181Z,1017.44
2019-04-21T07:47:25.334Z,1017.46
2019-04-21T07:48:28.915Z,1017.43
2019-04-21T07:49:28.112Z,1017.44
2019-04-21T07:50:28.623Z,1017.41
2019-04-21T07:51:25.448Z,1017.42
2019-04-21T07:52:18.926Z,1017.44
2019-04-21T07:53:32.286Z,1017.39
2019-04-21T07:54:33.798Z,1017.41
2019-04-21T07:56:09.355Z,1017.38
2019-04-21T07:57:19.022Z,1017.36
2019-04-21T07:58:24.327Z,1017.38
2019-04-21T07:59:30.344Z,1017.39
2019-04-21T08:00:45.485Z,1017.42
2019-04-21T08:01:26.959Z,1017.39
2019-04-21T08:02:22.153Z,1017.39
2019-04-21T08:03:43.860Z,1017.38
2019-04-21T08:06:58.182Z,1017.31
2019-04-21T08:07:55.800Z,1017.30
2019-04-21T08:09:51.494Z,1017.27
2019-04-21T08:10:53.879Z,1017.28
2019-04-21T08:12:54.181Z,1017.26
2019-04-21T08:13:58.576Z,1017.29
2019-04-21T08:16:03.107Z,1017.25
2019-04-21T08:17:03.301Z,1017.25
2019-04-21T08:19:12.906Z,1017.22
2019-04-21T08:20:14.297Z,1017.21
2019-04-21T08:21:16.425Z,1017.23
2019-04-21T08:23:13.246Z,1017.20
2019-04-21T08:24:14.955Z,1017.15
2019-04-21T08:25:14.933Z,1017.18
2019-04-21T08:26:19.126Z,1017.16
2019-04-21T08:27:28.304Z,1017.18
2019-04-21T08:28:09.079Z,1017.17
2019-04-21T08:29:21.304Z,1017.16
2019-04-21T08:30:11.517Z,1017.17
2019-04-21T08:31:14.342Z,1017.11
2019-04-21T08:32:14.510Z,1017.10
2019-04-21T08:33:25.046Z,1017.11
2019-04-21T08:34:13.943Z,1017.11
2019-04-21T08:35:34.236Z,1017.11
2019-04-21T08:36:19.381Z,1017.13
2019-04-21T08:37:16.546Z,1017.05
2019-04-21T08:38:15.105Z,1017.08
2019-04-21T08:39:13.216Z,1017.08
2019-04-21T08:40:19.322Z,1017.05
2019-04-21T08:41:16.432Z,1017.03
2019-04-21T08:42:14.215Z,1017.01
2019-04-21T08:43:08.860Z,1017.02
2019-04-21T08:44:16.832Z,1017.05
2019-04-21T08:45:15.147Z,1017.02
2019-04-21T08:46:16.942Z,1017.00
2019-04-21T08:47:15.401Z,1017.01
2019-04-21T08:48:10.574Z,1017.02
2019-04-21T08:49:15.541Z,1017.01
2019-04-21T08:50:08.442Z,1017.01
2019-04-21T08:52:21.757Z,1017.00
2019-04-21T08:53:21.158Z,1016.96
2019-04-21T08:54:15.128Z,1016.97
2019-04-21T08:55:15.552Z,1016.92
2019-04-21T08:56:18.481Z,1016.94
2019-04-21T08:57:20.152Z,1016.94
2019-04-21T08:58:22.008Z,1016.94
2019-04-21T09:00:12.283Z,1016.90
2019-04-21T09:01:17.813Z,1016.89
2019-04-21T09:02:14.581Z,1016.87
2019-04-21T09:03:17.901Z,1016.88
2019-04-21T09:04:13.183Z,1016.85
2019-04-21T09:05:15.451Z,1016.83
2019-04-21T09:06:16.953Z,1016.81
2019-04-21T09:08:13.740Z,1016.80
2019-04-21T09:09:14.365Z,1016.81
2019-04-21T09:10:09.421Z,1016.81
2019-04-21T09:11:05.508Z,1016.80
2019-04-21T09:12:10.660Z,1016.80
2019-04-21T09:13:14.897Z,1016.80
2019-04-21T09:14:13.403Z,1016.75
2019-04-21T09:15:08.287Z,1016.76
2019-04-21T09:16:09.469Z,1016.73
2019-04-21T09:17:08.296Z,1016.73
2019-04-21T09:18:05.367Z,1016.74
2019-04-21T09:19:04.429Z,1016.71
2019-04-21T09:20:17.001Z,1016.70
2019-04-21T09:21:14.909Z,1016.72
2019-04-21T09:22:05.745Z,1016.71
2019-04-21T09:23:11.405Z,1016.67
2019-04-21T09:24:14.722Z,1016.69
2019-04-21T09:25:09.382Z,1016.67
2019-04-21T09:26:10.464Z,1016.69
2019-04-21T09:27:08.447Z,1016.68
2019-04-21T09:28:08.086Z,1016.67
2019-04-21T09:29:05.855Z,1016.67
2019-04-21T09:29:55.885Z,1016.64
2019-04-21T09:30:55.960Z,1016.60
2019-04-21T09:31:55.081Z,1016.61
2019-04-21T09:32:54.463Z,1016.65
2019-04-21T09:33:54.404Z,1016.59
2019-04-21T09:34:52.673Z,1016.60
2019-04-21T09:35:58.724Z,1016.55
2019-04-21T09:36:54.889Z,1016.57
2019-04-21T09:38:00.232Z,1016.53
2019-04-21T09:39:00.205Z,1016.57
2019-04-21T09:39:53.542Z,1016.54
2019-04-21T09:40:54.011Z,1016.52
2019-04-21T09:41:54.543Z,1016.53
2019-04-21T09:42:57.478Z,1016.51
2019-04-21T09:43:54.017Z,1016.50
2019-04-21T09:44:55.652Z,1016.51
2019-04-21T09:45:51.935Z,1016.49
2019-04-21T09:46:54.893Z,1016.48
2019-04-21T09:47:59.012Z,1016.50
2019-04-21T09:48:58.644Z,1016.45
2019-04-21T09:49:51.687Z,1016.49
2019-04-21T09:50:50.520Z,1016.43
2019-04-21T09:51:50.613Z,1016.42
2019-04-21T09:52:58.240Z,1016.41
2019-04-21T09:53:57.227Z,1016.41
2019-04-21T09:54:58.639Z,1016.40
2019-04-21T09:55:56.774Z,1016.41
2019-04-21T09:56:54.980Z,1016.39
2019-04-21T09:57:55.684Z,1016.33
2019-04-21T09:58:57.375Z,1016.38
2019-04-21T10:00:02.146Z,1016.37
2019-04-21T10:01:01.405Z,1016.32
2019-04-21T10:01:59.174Z,1016.31
2019-04-21T10:02:59.955Z,1016.29
2019-04-21T10:03:56.666Z,1016.27
2019-04-21T10:04:50.533Z,1016.24
2019-04-21T10:05:50.277Z,1016.27
2019-04-21T10:06:50.305Z,1016.28
2019-04-21T10:07:50.781Z,1016.25
2019-04-21T10:08:57.520Z,1016.26
2019-04-21T10:09:50.104Z,1016.19
2019-04-21T10:10:51.144Z,1016.19
2019-04-21T10:11:50.485Z,1016.18
2019-04-21T10:12:50.004Z,1016.15
2019-04-21T10:13:50.729Z,1016.15
2019-04-21T10:14:50.258Z,1016.15
2019-04-21T10:15:49.891Z,1016.14
2019-04-21T10:16:49.881Z,1016.12
2019-04-21T10:17:51.997Z,1016.11
2019-04-21T10:18:50.438Z,1016.04
2019-04-21T10:19:50.686Z,1016.05
2019-04-21T10:20:51.240Z,1016.00
2019-04-21T10:21:50.155Z,1015.97
2019-04-21T10:22:50.867Z,1015.98
2019-04-21T10:23:50.104Z,1015.97
2019-04-21T10:24:50.438Z,1015.96
2019-04-21T10:25:50.590Z,1015.92
2019-04-21T10:26:51.360Z,1015.95
2019-04-21T10:27:51.246Z,1015.95
2019-04-21T10:28:50.980Z,1015.89
2019-04-21T10:29:50.554Z,1015.94
2019-04-21T10:30:50.873Z,1015.90
2019-04-21T10:31:50.518Z,1015.85
2019-04-21T10:32:50.231Z,1015.86
2019-04-21T10:33:50.298Z,1015.78
2019-04-21T10:34:49.706Z,1015.77
2019-04-21T10:35:50.793Z,1015.77
2019-04-21T10:36:51.173Z,1015.74
2019-04-21T10:38:02.744Z,1015.71
2019-04-21T10:38:52.206Z,1015.67
2019-04-21T10:39:49.637Z,1015.68
2019-04-21T10:40:49.709Z,1015.64
2019-04-21T10:41:49.446Z,1015.66
2019-04-21T10:42:50.071Z,1015.66
2019-04-21T10:43:49.530Z,1015.65
2019-04-21T10:44:49.665Z,1015.57
2019-04-21T10:45:50.621Z,1015.61
2019-04-21T10:46:51.843Z,1015.63
2019-04-21T10:47:49.370Z,1015.68
2019-04-21T10:48:50.566Z,1015.61
2019-04-21T10:49:50.667Z,1015.65
2019-04-21T10:50:49.418Z,1015.60
2019-04-21T10:51:49.305Z,1015.60
2019-04-21T10:52:49.447Z,1015.54
2019-04-21T10:53:52.378Z,1015.57
2019-04-21T10:55:11.158Z,1015.56
2019-04-21T10:56:12.203Z,1015.54
2019-04-21T10:57:56.590Z,1015.51
2019-04-21T10:58:58.261Z,1015.55
2019-04-21T10:59:58.195Z,1015.53
2019-04-21T11:00:57.833Z,1015.50
2019-04-21T11:01:56.850Z,1015.41
2019-04-21T11:02:56.927Z,1015.40
2019-04-21T11:03:58.546Z,1015.41
2019-04-21T11:04:56.678Z,1015.41
2019-04-21T11:05:56.690Z,1015.34
2019-04-21T11:06:59.424Z,1015.33
2019-04-21T11:08:09.049Z,1015.31
2019-04-21T11:08:59.001Z,1015.25
2019-04-21T11:09:56.102Z,1015.22
2019-04-21T11:10:56.493Z,1015.28
2019-04-21T11:11:55.996Z,1015.24
2019-04-21T11:12:56.825Z,1015.22
2019-04-21T11:13:56.820Z,1015.26
2019-04-21T11:14:56.885Z,1015.27
2019-04-21T11:15:57.037Z,1015.24
2019-04-21T11:16:56.598Z,1015.26
2019-04-21T11:17:55.778Z,1015.22
2019-04-21T11:18:55.933Z,1015.22
2019-04-21T11:19:56.953Z,1015.22
2019-04-21T11:20:55.664Z,1015.18
2019-04-21T11:21:56.758Z,1015.18
2019-04-21T11:22:55.979Z,1015.16
2019-04-21T11:23:56.533Z,1015.16
2019-04-21T11:24:56.573Z,1015.16
2019-04-21T11:25:55.866Z,1015.11
2019-04-21T11:26:55.899Z,1015.16
2019-04-21T11:27:55.694Z,1015.17
2019-04-21T11:28:56.725Z,1015.17
2019-04-21T11:29:55.864Z,1015.13
2019-04-21T11:30:57.035Z,1015.10
2019-04-21T11:31:56.765Z,1015.07
2019-04-21T11:32:55.406Z,1015.09
2019-04-21T11:33:55.437Z,1015.07
2019-04-21T11:34:55.257Z,1015.05
2019-04-21T11:35:55.446Z,1015.05
2019-04-21T11:36:56.341Z,1015.05
2019-04-21T11:38:04.573Z,1015.07
2019-04-21T11:39:09.833Z,1015.06
2019-04-21T11:40:02.707Z,1015.06
2019-04-21T11:40:55.920Z,1015.04
2019-04-21T11:41:55.124Z,1015.01
2019-04-21T11:42:55.610Z,1015.07
2019-04-21T11:43:55.174Z,1015.05
2019-04-21T11:44:55.422Z,1015.06
2019-04-21T11:45:54.998Z,1015.05
2019-04-21T11:46:56.249Z,1015.06
2019-04-21T11:47:56.342Z,1015.06
2019-04-21T11:48:55.051Z,1015.00
2019-04-21T11:49:55.069Z,1015.08
2019-04-21T11:50:55.271Z,1015.08
2019-04-21T11:51:56.347Z,1015.05
2019-04-21T11:52:54.961Z,1015.05
2019-04-21T11:53:55.077Z,1015.07
2019-04-21T11:54:55.107Z,1015.09
2019-04-21T11:55:55.550Z,1015.03
2019-04-21T11:56:55.033Z,1015.09
2019-04-21T11:57:56.422Z,1015.07
2019-04-21T11:58:54.834Z,1015.07
2019-04-21T11:59:55.523Z,1015.04
2019-04-21T12:00:55.724Z,1015.03
2019-04-21T12:01:54.693Z,1015.01
2019-04-21T12:02:55.419Z,1015.03
2019-04-21T12:03:55.706Z,1014.96
2019-04-21T12:04:54.665Z,1014.97
2019-04-21T12:05:55.289Z,1014.96
2019-04-21T12:06:55.927Z,1014.95
2019-04-21T12:07:58.304Z,1014.94
2019-04-21T12:08:57.721Z,1014.93
2019-04-21T12:09:55.502Z,1014.88
2019-04-21T12:10:55.498Z,1014.92
2019-04-21T12:11:54.615Z,1014.88
2019-04-21T12:12:55.168Z,1014.87
2019-04-21T12:13:54.456Z,1014.89
2019-04-21T12:14:54.748Z,1014.86
2019-04-21T12:15:54.847Z,1014.82
2019-04-21T12:16:55.159Z,1014.81
2019-04-21T12:17:54.486Z,1014.78
2019-04-21T12:18:54.688Z,1014.81
2019-04-21T12:19:54.761Z,1014.79
2019-04-21T12:20:55.575Z,1014.79
2019-04-21T12:22:05.282Z,1014.76
2019-04-21T12:22:54.915Z,1014.72
2019-04-21T12:23:54.418Z,1014.74
2019-04-21T12:24:55.493Z,1014.72
2019-04-21T12:25:54.812Z,1014.73
2019-04-21T12:26:54.325Z,1014.77
2019-04-21T12:27:54.325Z,1014.74
2019-04-21T12:28:55.738Z,1014.73
2019-04-21T12:29:55.261Z,1014.72
2019-04-21T12:30:54.177Z,1014.68
2019-04-21T12:31:54.158Z,1014.72
2019-04-21T12:32:54.117Z,1014.69
2019-04-21T12:33:54.354Z,1014.69
2019-04-21T12:34:55.312Z,1014.64
2019-04-21T12:35:54.183Z,1014.63
2019-04-21T12:36:54.969Z,1014.61
2019-04-21T12:37:55.049Z,1014.63
2019-04-21T12:38:57.834Z,1014.62
2019-04-21T12:39:54.749Z,1014.65
2019-04-21T12:40:54.864Z,1014.66
2019-04-21T12:41:54.297Z,1014.63
2019-04-21T12:42:54.877Z,1014.62
2019-04-21T12:43:54.982Z,1014.60
2019-04-21T12:44:55.041Z,1014.63
2019-04-21T12:45:53.907Z,1014.61
2019-04-21T12:46:54.108Z,1014.67
2019-04-21T12:47:54.044Z,1014.64
2019-04-21T12:48:54.081Z,1014.64
2019-04-21T12:49:54.084Z,1014.66
2019-04-21T12:50:54.251Z,1014.67
2019-04-21T12:51:53.818Z,1014.65
2019-04-21T12:52:53.795Z,1014.64
2019-04-21T12:53:54.074Z,1014.60
2019-04-21T12:54:53.769Z,1014.59
2019-04-21T12:55:53.905Z,1014.58
2019-04-21T12:56:53.927Z,1014.56
2019-04-21T12:57:55.128Z,1014.48
2019-04-21T12:58:53.833Z,1014.45
2019-04-21T12:59:54.919Z,1014.49
2019-04-21T13:00:54.723Z,1014.47
2019-04-21T13:01:54.825Z,1014.48
2019-04-21T13:02:53.998Z,1014.46
2019-04-21T13:03:53.895Z,1014.39
2019-04-21T13:04:54.593Z,1014.41
2019-04-21T13:05:53.806Z,1014.38
2019-04-21T13:06:53.606Z,1014.36
2019-04-21T13:07:53.673Z,1014.39
2019-04-21T13:09:01.450Z,1014.32
2019-04-21T13:09:54.591Z,1014.35
2019-04-21T13:10:53.962Z,1014.30
2019-04-21T13:11:53.521Z,1014.32
2019-04-21T13:12:54.260Z,1014.32
2019-04-21T13:13:53.697Z,1014.26
2019-04-21T13:14:55.911Z,1014.25
2019-04-21T13:15:53.530Z,1014.27
2019-04-21T13:16:53.497Z,1014.23
2019-04-21T13:17:54.213Z,1014.21
2019-04-21T13:18:53.561Z,1014.28
2019-04-21T13:19:53.623Z,1014.25
2019-04-21T13:20:54.027Z,1014.20
2019-04-21T13:21:54.026Z,1014.20
2019-04-21T13:22:54.342Z,1014.17
2019-04-21T13:23:54.704Z,1014.16
2019-04-21T13:24:53.856Z,1014.19
2019-04-21T13:25:54.165Z,1014.21
2019-04-21T13:26:58.110Z,1014.19
2019-04-21T13:27:54.472Z,1014.13
2019-04-21T13:28:54.237Z,1014.11
2019-04-21T13:29:54.461Z,1014.09
2019-04-21T13:30:54.012Z,1014.04
2019-04-21T13:31:54.280Z,1014.04
2019-04-21T13:32:53.543Z,1013.98
2019-04-21T13:33:53.457Z,1013.99
2019-04-21T13:34:54.879Z,1014.00
2019-04-21T13:35:53.295Z,1014.01
2019-04-21T13:36:53.959Z,1013.98
2019-04-21T13:37:54.403Z,1013.94
2019-04-21T13:39:24.961Z,1013.92
2019-04-21T13:40:14.654Z,1013.92
2019-04-21T13:41:11.877Z,1013.85
2019-04-21T13:42:02.755Z,1013.90
2019-04-21T13:42:57.235Z,1013.90
2019-04-21T13:43:53.147Z,1013.86
2019-04-21T13:44:56.194Z,1013.84
2019-04-21T13:45:54.087Z,1013.83
2019-04-21T13:46:54.496Z,1013.77
2019-04-21T13:47:54.480Z,1013.78
2019-04-21T13:48:54.727Z,1013.80
2019-04-21T13:49:54.848Z,1013.73
2019-04-21T13:50:53.447Z,1013.80
2019-04-21T13:51:54.186Z,1013.71
2019-04-21T13:52:54.346Z,1013.68
2019-04-21T13:53:53.634Z,1013.72
2019-04-21T13:54:53.768Z,1013.69
2019-04-21T13:55:53.237Z,1013.68
2019-04-21T13:56:54.251Z,1013.66
2019-04-21T13:57:54.445Z,1013.71
2019-04-21T13:58:52.979Z,1013.72
2019-04-21T13:59:53.166Z,1013.71
2019-04-21T14:00:54.228Z,1013.69
2019-04-21T14:01:54.037Z,1013.71
2019-04-21T14:02:54.480Z,1013.66
2019-04-21T14:03:53.544Z,1013.63
2019-04-21T14:04:53.698Z,1013.64
2019-04-21T14:05:54.139Z,1013.57
2019-04-21T14:06:54.172Z,1013.55
2019-04-21T14:07:54.370Z,1013.55
2019-04-21T14:08:52.875Z,1013.52
2019-04-21T14:09:57.703Z,1013.44
2019-04-21T14:10:53.600Z,1013.41
2019-04-21T14:11:55.334Z,1013.34
2019-04-21T14:12:54.129Z,1013.34
2019-04-21T14:13:54.295Z,1013.26
2019-04-21T14:14:54.327Z,1013.25
2019-04-21T14:15:53.852Z,1013.21
2019-04-21T14:16:54.157Z,1013.24
2019-04-21T14:17:53.197Z,1013.24
2019-04-21T14:18:52.898Z,1013.20
2019-04-21T14:19:53.169Z,1013.18